sensor_id;sensor_type;location;lat;lon;timestamp;temperature;humidity
9083;DHT22;4577;48.704;9.000;2023-07-02T00:01:46;16.70;99.90
9083;DHT22;4577;48.704;9.000;2023-07-02T00:04:13;16.60;99.90
9083;DHT22;4577;48.704;9.000;2023-07-02T00:06:43;16.60;99.90
9083;DHT22;4577;48.704;9.000;2023-07-02T00:09:12;16.60;99.90
9083;DHT22;4577;48.704;9.000;2023-07-02T00:11:39;16.60;99.90
9083;DHT22;4577;48.704;9.000;2023-07-02T00:14:06;16.60;99.90
9083;DHT22;4577;48.704;9.000;2023-07-02T00:16:32;16.60;99.90
9083;DHT22;4577;48.704;9.000;2023-07-02T00:18:58;16.70;99.90
9083;DHT22;4577;48.704;9.000;2023-07-02T00:21:26;16.70;99.90
9083;DHT22;4577;48.704;9.000;2023-07-02T00:23:54;16.70;99.90
9083;DHT22;4577;48.704;9.000;2023-07-02T00:26:26;16.70;99.90
9083;DHT22;4577;48.704;9.000;2023-07-02T00:28:53;16.70;99.90
9083;DHT22;4577;48.704;9.000;2023-07-02T00:31:19;16.30;99.90
9083;DHT22;4577;48.704;9.000;2023-07-02T00:33:45;16.50;99.90
9083;DHT22;4577;48.704;9.000;2023-07-02T00:36:11;16.60;99.90
9083;DHT22;4577;48.704;9.000;2023-07-02T00:38:41;16.60;99.90
9083;DHT22;4577;48.704;9.000;2023-07-02T00:41:09;16.60;99.90
9083;DHT22;4577;48.704;9.000;2023-07-02T00:43:35;16.60;99.90
9083;DHT22;4577;48.704;9.000;2023-07-02T00:46:01;16.70;99.90
9083;DHT22;4577;48.704;9.000;2023-07-02T00:48:29;16.60;99.90
9083;DHT22;4577;48.704;9.000;2023-07-02T00:50:55;16.60;99.90
9083;DHT22;4577;48.704;9.000;2023-07-02T00:53:21;16.60;99.90
9083;DHT22;4577;48.704;9.000;2023-07-02T00:55:47;16.60;99.90
9083;DHT22;4577;48.704;9.000;2023-07-02T00:58:13;16.60;99.90
9083;DHT22;4577;48.704;9.000;2023-07-02T01:00:42;16.60;99.90
9083;DHT22;4577;48.704;9.000;2023-07-02T01:03:07;16.70;99.90
9083;DHT22;4577;48.704;9.000;2023-07-02T01:05:33;16.70;99.90
9083;DHT22;4577;48.704;9.000;2023-07-02T01:08:05;16.70;99.90
9083;DHT22;4577;48.704;9.000;2023-07-02T01:10:33;16.70;99.90
9083;DHT22;4577;48.704;9.000;2023-07-02T01:13:04;16.70;99.90
9083;DHT22;4577;48.704;9.000;2023-07-02T01:15:31;16.70;99.90
9083;DHT22;4577;48.704;9.000;2023-07-02T01:17:57;16.70;99.90
9083;DHT22;4577;48.704;9.000;2023-07-02T01:20:24;16.60;99.90
9083;DHT22;4577;48.704;9.000;2023-07-02T01:22:52;16.60;99.90
9083;DHT22;4577;48.704;9.000;2023-07-02T01:25:18;16.60;99.90
9083;DHT22;4577;48.704;9.000;2023-07-02T01:27:44;16.60;99.90
9083;DHT22;4577;48.704;9.000;2023-07-02T01:30:10;16.60;99.90
9083;DHT22;4577;48.704;9.000;2023-07-02T01:32:37;16.60;99.90
9083;DHT22;4577;48.704;9.000;2023-07-02T01:35:04;13.60;99.90
9083;DHT22;4577;48.704;9.000;2023-07-02T01:37:29;16.60;99.90
9083;DHT22;4577;48.704;9.000;2023-07-02T01:40:03;16.60;99.90
9083;DHT22;4577;48.704;9.000;2023-07-02T01:42:31;16.60;99.90
9083;DHT22;4577;48.704;9.000;2023-07-02T01:44:57;16.60;99.90
9083;DHT22;4577;48.704;9.000;2023-07-02T01:47:22;16.60;99.90
9083;DHT22;4577;48.704;9.000;2023-07-02T01:49:49;16.60;99.90
9083;DHT22;4577;48.704;9.000;2023-07-02T01:52:15;16.60;99.90
9083;DHT22;4577;48.704;9.000;2023-07-02T01:54:41;16.60;99.90
9083;DHT22;4577;48.704;9.000;2023-07-02T01:57:07;16.60;99.90
9083;DHT22;4577;48.704;9.000;2023-07-02T01:59:32;16.80;99.90
9083;DHT22;4577;48.704;9.000;2023-07-02T02:01:58;16.90;99.90
9083;DHT22;4577;48.704;9.000;2023-07-02T02:04:24;16.80;99.90
9083;DHT22;4577;48.704;9.000;2023-07-02T02:06:49;16.80;99.90
9083;DHT22;4577;48.704;9.000;2023-07-02T02:09:15;16.90;99.90
9083;DHT22;4577;48.704;9.000;2023-07-02T02:11:44;16.90;99.90
9083;DHT22;4577;48.704;9.000;2023-07-02T02:14:10;17.00;99.90
9083;DHT22;4577;48.704;9.000;2023-07-02T02:16:36;17.00;99.90
9083;DHT22;4577;48.704;9.000;2023-07-02T02:19:02;17.00;99.90
9083;DHT22;4577;48.704;9.000;2023-07-02T02:21:28;17.10;99.90
9083;DHT22;4577;48.704;9.000;2023-07-02T02:23:54;17.00;99.90
9083;DHT22;4577;48.704;9.000;2023-07-02T02:26:21;17.10;99.90
9083;DHT22;4577;48.704;9.000;2023-07-02T02:28:47;17.10;99.90
9083;DHT22;4577;48.704;9.000;2023-07-02T02:31:14;17.20;99.90
9083;DHT22;4577;48.704;9.000;2023-07-02T02:33:40;17.10;99.90
9083;DHT22;4577;48.704;9.000;2023-07-02T02:36:05;17.20;99.90
9083;DHT22;4577;48.704;9.000;2023-07-02T02:38:31;17.20;99.90
9083;DHT22;4577;48.704;9.000;2023-07-02T02:40:57;17.20;99.90
9083;DHT22;4577;48.704;9.000;2023-07-02T02:43:22;17.10;99.90
9083;DHT22;4577;48.704;9.000;2023-07-02T02:45:48;16.90;99.90
9083;DHT22;4577;48.704;9.000;2023-07-02T02:48:14;16.80;99.90
9083;DHT22;4577;48.704;9.000;2023-07-02T02:50:39;16.60;99.90
9083;DHT22;4577;48.704;9.000;2023-07-02T02:53:07;16.60;99.90
9083;DHT22;4577;48.704;9.000;2023-07-02T02:55:33;16.50;99.90
9083;DHT22;4577;48.704;9.000;2023-07-02T02:57:58;16.40;99.90
9083;DHT22;4577;48.704;9.000;2023-07-02T03:00:24;16.30;99.90
9083;DHT22;4577;48.704;9.000;2023-07-02T03:02:50;16.40;99.90
9083;DHT22;4577;48.704;9.000;2023-07-02T03:05:16;16.40;99.90
9083;DHT22;4577;48.704;9.000;2023-07-02T03:07:42;16.30;99.90
9083;DHT22;4577;48.704;9.000;2023-07-02T03:10:08;16.30;99.90
9083;DHT22;4577;48.704;9.000;2023-07-02T03:12:34;15.90;99.90
9083;DHT22;4577;48.704;9.000;2023-07-02T03:14:59;15.70;99.90
9083;DHT22;4577;48.704;9.000;2023-07-02T03:17:25;15.50;99.90
9083;DHT22;4577;48.704;9.000;2023-07-02T03:19:51;15.40;99.90
9083;DHT22;4577;48.704;9.000;2023-07-02T03:22:17;15.30;99.90
9083;DHT22;4577;48.704;9.000;2023-07-02T03:24:43;15.30;99.90
9083;DHT22;4577;48.704;9.000;2023-07-02T03:27:08;15.30;99.90
9083;DHT22;4577;48.704;9.000;2023-07-02T03:29:34;15.10;99.90
9083;DHT22;4577;48.704;9.000;2023-07-02T03:32:01;15.10;99.90
9083;DHT22;4577;48.704;9.000;2023-07-02T03:34:27;15.10;99.90
9083;DHT22;4577;48.704;9.000;2023-07-02T03:36:53;15.00;99.90
9083;DHT22;4577;48.704;9.000;2023-07-02T03:39:18;15.10;99.90
9083;DHT22;4577;48.704;9.000;2023-07-02T03:41:44;15.00;99.90
9083;DHT22;4577;48.704;9.000;2023-07-02T03:44:10;15.00;99.90
9083;DHT22;4577;48.704;9.000;2023-07-02T03:46:36;15.00;99.90
9083;DHT22;4577;48.704;9.000;2023-07-02T03:49:05;15.00;99.90
9083;DHT22;4577;48.704;9.000;2023-07-02T03:51:31;14.90;99.90
9083;DHT22;4577;48.704;9.000;2023-07-02T03:53:58;15.00;99.90
9083;DHT22;4577;48.704;9.000;2023-07-02T03:56:24;15.00;99.90
9083;DHT22;4577;48.704;9.000;2023-07-02T03:58:49;15.00;99.90
9083;DHT22;4577;48.704;9.000;2023-07-02T04:01:15;15.40;99.90
9083;DHT22;4577;48.704;9.000;2023-07-02T04:03:48;15.10;99.90
9083;DHT22;4577;48.704;9.000;2023-07-02T04:06:14;15.20;99.90
9083;DHT22;4577;48.704;9.000;2023-07-02T04:08:40;15.10;99.90
9083;DHT22;4577;48.704;9.000;2023-07-02T04:11:05;14.80;99.90
9083;DHT22;4577;48.704;9.000;2023-07-02T04:13:31;15.00;99.90
9083;DHT22;4577;48.704;9.000;2023-07-02T04:15:57;15.00;99.90
9083;DHT22;4577;48.704;9.000;2023-07-02T04:18:22;15.00;99.90
9083;DHT22;4577;48.704;9.000;2023-07-02T04:20:48;15.20;99.90
9083;DHT22;4577;48.704;9.000;2023-07-02T04:23:14;15.20;99.90
9083;DHT22;4577;48.704;9.000;2023-07-02T04:25:39;15.30;99.90
9083;DHT22;4577;48.704;9.000;2023-07-02T04:28:05;15.50;99.90
9083;DHT22;4577;48.704;9.000;2023-07-02T04:30:30;15.50;99.90
9083;DHT22;4577;48.704;9.000;2023-07-02T04:32:56;15.50;99.90
9083;DHT22;4577;48.704;9.000;2023-07-02T04:35:22;15.60;99.90
9083;DHT22;4577;48.704;9.000;2023-07-02T04:37:47;15.80;99.90
9083;DHT22;4577;48.704;9.000;2023-07-02T04:40:13;15.90;99.90
9083;DHT22;4577;48.704;9.000;2023-07-02T04:42:41;16.00;99.90
9083;DHT22;4577;48.704;9.000;2023-07-02T04:45:07;16.10;99.90
9083;DHT22;4577;48.704;9.000;2023-07-02T04:47:34;15.90;99.90
9083;DHT22;4577;48.704;9.000;2023-07-02T04:50:00;15.90;99.90
9083;DHT22;4577;48.704;9.000;2023-07-02T04:52:26;16.00;99.90
9083;DHT22;4577;48.704;9.000;2023-07-02T04:54:52;16.00;99.90
9083;DHT22;4577;48.704;9.000;2023-07-02T04:57:18;15.80;99.90
9083;DHT22;4577;48.704;9.000;2023-07-02T04:59:44;15.80;99.90
9083;DHT22;4577;48.704;9.000;2023-07-02T05:02:10;15.70;99.90
9083;DHT22;4577;48.704;9.000;2023-07-02T05:04:36;15.80;99.90
9083;DHT22;4577;48.704;9.000;2023-07-02T05:07:03;15.80;99.90
9083;DHT22;4577;48.704;9.000;2023-07-02T05:09:29;15.60;99.90
9083;DHT22;4577;48.704;9.000;2023-07-02T05:11:55;15.60;99.90
9083;DHT22;4577;48.704;9.000;2023-07-02T05:14:21;15.40;99.90
9083;DHT22;4577;48.704;9.000;2023-07-02T05:16:48;15.30;99.90
9083;DHT22;4577;48.704;9.000;2023-07-02T05:19:14;15.30;99.90
9083;DHT22;4577;48.704;9.000;2023-07-02T05:21:39;15.40;99.90
9083;DHT22;4577;48.704;9.000;2023-07-02T05:24:05;15.50;99.90
9083;DHT22;4577;48.704;9.000;2023-07-02T05:26:32;15.60;99.90
9083;DHT22;4577;48.704;9.000;2023-07-02T05:28:58;15.50;99.90
9083;DHT22;4577;48.704;9.000;2023-07-02T05:31:23;15.50;99.90
9083;DHT22;4577;48.704;9.000;2023-07-02T05:33:49;15.30;99.90
9083;DHT22;4577;48.704;9.000;2023-07-02T05:36:15;15.30;99.90
9083;DHT22;4577;48.704;9.000;2023-07-02T05:38:40;15.40;99.90
9083;DHT22;4577;48.704;9.000;2023-07-02T05:41:06;15.20;99.90
9083;DHT22;4577;48.704;9.000;2023-07-02T05:43:32;15.30;99.90
9083;DHT22;4577;48.704;9.000;2023-07-02T05:45:58;15.30;99.90
9083;DHT22;4577;48.704;9.000;2023-07-02T05:48:27;15.40;99.90
9083;DHT22;4577;48.704;9.000;2023-07-02T05:50:53;15.40;99.90
9083;DHT22;4577;48.704;9.000;2023-07-02T05:53:19;15.50;99.90
9083;DHT22;4577;48.704;9.000;2023-07-02T05:55:44;15.60;99.90
9083;DHT22;4577;48.704;9.000;2023-07-02T05:58:10;15.60;99.90
9083;DHT22;4577;48.704;9.000;2023-07-02T06:00:36;15.60;99.90
9083;DHT22;4577;48.704;9.000;2023-07-02T06:03:02;14.80;99.90
9083;DHT22;4577;48.704;9.000;2023-07-02T06:05:28;15.80;99.90
9083;DHT22;4577;48.704;9.000;2023-07-02T06:07:53;15.80;99.90
9083;DHT22;4577;48.704;9.000;2023-07-02T06:10:19;15.80;99.90
9083;DHT22;4577;48.704;9.000;2023-07-02T06:12:45;15.80;99.90
9083;DHT22;4577;48.704;9.000;2023-07-02T06:15:10;15.80;99.90
9083;DHT22;4577;48.704;9.000;2023-07-02T06:17:36;16.00;99.90
9083;DHT22;4577;48.704;9.000;2023-07-02T06:20:03;16.00;99.90
9083;DHT22;4577;48.704;9.000;2023-07-02T06:22:32;16.00;99.90
9083;DHT22;4577;48.704;9.000;2023-07-02T06:24:57;16.00;99.90
9083;DHT22;4577;48.704;9.000;2023-07-02T06:27:23;16.00;99.90
9083;DHT22;4577;48.704;9.000;2023-07-02T06:29:49;16.20;99.90
9083;DHT22;4577;48.704;9.000;2023-07-02T06:32:16;16.10;99.90
9083;DHT22;4577;48.704;9.000;2023-07-02T06:34:42;16.10;99.90
9083;DHT22;4577;48.704;9.000;2023-07-02T06:37:07;16.10;99.90
9083;DHT22;4577;48.704;9.000;2023-07-02T06:39:33;16.20;99.90
9083;DHT22;4577;48.704;9.000;2023-07-02T06:41:59;16.20;99.90
9083;DHT22;4577;48.704;9.000;2023-07-02T06:44:24;16.20;99.90
9083;DHT22;4577;48.704;9.000;2023-07-02T06:46:50;16.20;99.90
9083;DHT22;4577;48.704;9.000;2023-07-02T06:49:15;16.30;99.90
9083;DHT22;4577;48.704;9.000;2023-07-02T06:51:41;16.40;99.90
9083;DHT22;4577;48.704;9.000;2023-07-02T06:54:07;16.40;99.90
9083;DHT22;4577;48.704;9.000;2023-07-02T06:56:33;16.40;99.90
9083;DHT22;4577;48.704;9.000;2023-07-02T06:59:00;16.30;99.90
9083;DHT22;4577;48.704;9.000;2023-07-02T07:01:25;16.30;99.90
9083;DHT22;4577;48.704;9.000;2023-07-02T07:03:51;16.30;99.90
9083;DHT22;4577;48.704;9.000;2023-07-02T07:06:17;16.20;99.90
9083;DHT22;4577;48.704;9.000;2023-07-02T07:08:42;16.40;99.90
9083;DHT22;4577;48.704;9.000;2023-07-02T07:11:08;16.40;99.90
9083;DHT22;4577;48.704;9.000;2023-07-02T07:13:34;16.30;99.90
9083;DHT22;4577;48.704;9.000;2023-07-02T07:15:59;16.40;99.90
9083;DHT22;4577;48.704;9.000;2023-07-02T07:18:25;16.30;99.90
9083;DHT22;4577;48.704;9.000;2023-07-02T07:20:51;16.40;99.90
9083;DHT22;4577;48.704;9.000;2023-07-02T07:23:18;16.50;99.90
9083;DHT22;4577;48.704;9.000;2023-07-02T07:25:44;16.70;99.90
9083;DHT22;4577;48.704;9.000;2023-07-02T07:28:09;16.70;99.90
9083;DHT22;4577;48.704;9.000;2023-07-02T07:30:41;16.80;99.90
9083;DHT22;4577;48.704;9.000;2023-07-02T07:33:07;16.80;99.90
9083;DHT22;4577;48.704;9.000;2023-07-02T07:35:33;16.80;99.90
9083;DHT22;4577;48.704;9.000;2023-07-02T07:38:00;16.80;99.90
9083;DHT22;4577;48.704;9.000;2023-07-02T07:40:25;16.80;99.90
9083;DHT22;4577;48.704;9.000;2023-07-02T07:42:51;16.80;99.90
9083;DHT22;4577;48.704;9.000;2023-07-02T07:45:16;16.80;99.90
9083;DHT22;4577;48.704;9.000;2023-07-02T07:47:42;16.90;99.90
9083;DHT22;4577;48.704;9.000;2023-07-02T07:50:09;16.80;99.40
9083;DHT22;4577;48.704;9.000;2023-07-02T07:52:41;16.80;99.00
9083;DHT22;4577;48.704;9.000;2023-07-02T07:55:08;16.90;99.10
9083;DHT22;4577;48.704;9.000;2023-07-02T07:57:35;16.90;98.70
9083;DHT22;4577;48.704;9.000;2023-07-02T08:00:01;16.90;97.80
9083;DHT22;4577;48.704;9.000;2023-07-02T08:02:26;16.90;97.10
9083;DHT22;4577;48.704;9.000;2023-07-02T08:04:52;16.90;97.70
9083;DHT22;4577;48.704;9.000;2023-07-02T08:07:18;17.10;98.60
9083;DHT22;4577;48.704;9.000;2023-07-02T08:09:44;17.20;97.70
9083;DHT22;4577;48.704;9.000;2023-07-02T08:12:10;17.10;97.40
9083;DHT22;4577;48.704;9.000;2023-07-02T08:14:35;17.20;97.70
9083;DHT22;4577;48.704;9.000;2023-07-02T08:17:01;17.20;97.40
9083;DHT22;4577;48.704;9.000;2023-07-02T08:19:27;17.20;97.20
9083;DHT22;4577;48.704;9.000;2023-07-02T08:24:18;17.30;97.60
9083;DHT22;4577;48.704;9.000;2023-07-02T08:26:44;17.20;95.80
9083;DHT22;4577;48.704;9.000;2023-07-02T08:29:15;17.20;95.20
9083;DHT22;4577;48.704;9.000;2023-07-02T08:31:41;17.30;95.20
9083;DHT22;4577;48.704;9.000;2023-07-02T08:34:06;17.30;95.30
9083;DHT22;4577;48.704;9.000;2023-07-02T08:36:32;17.40;95.10
9083;DHT22;4577;48.704;9.000;2023-07-02T08:38:58;17.60;94.20
9083;DHT22;4577;48.704;9.000;2023-07-02T08:41:23;17.60;96.30
9083;DHT22;4577;48.704;9.000;2023-07-02T08:43:50;17.70;94.80
9083;DHT22;4577;48.704;9.000;2023-07-02T08:46:17;17.70;94.50
9083;DHT22;4577;48.704;9.000;2023-07-02T08:48:43;17.80;94.00
9083;DHT22;4577;48.704;9.000;2023-07-02T08:51:09;18.00;93.10
9083;DHT22;4577;48.704;9.000;2023-07-02T08:53:35;17.90;93.30
9083;DHT22;4577;48.704;9.000;2023-07-02T08:56:01;17.90;92.20
9083;DHT22;4577;48.704;9.000;2023-07-02T08:58:28;17.80;92.00
9083;DHT22;4577;48.704;9.000;2023-07-02T09:03:36;17.80;91.60
9083;DHT22;4577;48.704;9.000;2023-07-02T09:06:06;17.80;92.00
9083;DHT22;4577;48.704;9.000;2023-07-02T09:08:32;17.90;91.10
9083;DHT22;4577;48.704;9.000;2023-07-02T09:11:14;17.90;91.40
9083;DHT22;4577;48.704;9.000;2023-07-02T09:16:33;18.10;90.00
9083;DHT22;4577;48.704;9.000;2023-07-02T09:19:09;18.10;90.10
9083;DHT22;4577;48.704;9.000;2023-07-02T09:21:52;18.40;90.20
9083;DHT22;4577;48.704;9.000;2023-07-02T09:24:24;18.50;88.80
9083;DHT22;4577;48.704;9.000;2023-07-02T09:26:54;18.60;89.60
9083;DHT22;4577;48.704;9.000;2023-07-02T09:29:33;18.70;87.80
9083;DHT22;4577;48.704;9.000;2023-07-02T09:32:04;18.80;87.00
9083;DHT22;4577;48.704;9.000;2023-07-02T09:34:31;18.80;87.40
9083;DHT22;4577;48.704;9.000;2023-07-02T09:36:58;18.80;86.10
9083;DHT22;4577;48.704;9.000;2023-07-02T09:39:29;18.80;87.00
9083;DHT22;4577;48.704;9.000;2023-07-02T09:41:56;18.90;86.40
9083;DHT22;4577;48.704;9.000;2023-07-02T09:44:28;19.20;87.60
9083;DHT22;4577;48.704;9.000;2023-07-02T09:47:08;19.00;86.00
9083;DHT22;4577;48.704;9.000;2023-07-02T09:49:40;19.00;85.40
9083;DHT22;4577;48.704;9.000;2023-07-02T09:52:11;18.90;84.90
9083;DHT22;4577;48.704;9.000;2023-07-02T09:54:37;19.00;85.20
9083;DHT22;4577;48.704;9.000;2023-07-02T09:57:04;19.00;84.70
9083;DHT22;4577;48.704;9.000;2023-07-02T09:59:31;19.10;84.60
9083;DHT22;4577;48.704;9.000;2023-07-02T10:01:57;19.00;80.90
9083;DHT22;4577;48.704;9.000;2023-07-02T10:04:23;19.20;81.80
9083;DHT22;4577;48.704;9.000;2023-07-02T10:06:53;19.30;79.00
9083;DHT22;4577;48.704;9.000;2023-07-02T10:09:20;19.30;78.10
9083;DHT22;4577;48.704;9.000;2023-07-02T10:11:46;19.30;77.80
9083;DHT22;4577;48.704;9.000;2023-07-02T10:14:12;19.20;79.30
9083;DHT22;4577;48.704;9.000;2023-07-02T10:16:51;19.30;79.30
9083;DHT22;4577;48.704;9.000;2023-07-02T10:19:17;19.20;77.00
9083;DHT22;4577;48.704;9.000;2023-07-02T10:21:43;19.00;80.00
9083;DHT22;4577;48.704;9.000;2023-07-02T10:26:37;19.60;75.10
9083;DHT22;4577;48.704;9.000;2023-07-02T10:29:03;19.40;75.30
9083;DHT22;4577;48.704;9.000;2023-07-02T10:31:29;19.60;75.40
9083;DHT22;4577;48.704;9.000;2023-07-02T10:33:55;19.60;76.00
9083;DHT22;4577;48.704;9.000;2023-07-02T10:36:22;19.70;75.80
9083;DHT22;4577;48.704;9.000;2023-07-02T10:38:50;19.70;74.60
9083;DHT22;4577;48.704;9.000;2023-07-02T10:41:29;19.70;74.40
9083;DHT22;4577;48.704;9.000;2023-07-02T10:44:10;19.60;74.30
9083;DHT22;4577;48.704;9.000;2023-07-02T10:46:47;19.50;73.80
9083;DHT22;4577;48.704;9.000;2023-07-02T10:49:14;19.50;74.20
9083;DHT22;4577;48.704;9.000;2023-07-02T10:51:40;19.60;72.90
9083;DHT22;4577;48.704;9.000;2023-07-02T10:54:06;19.70;70.90
9083;DHT22;4577;48.704;9.000;2023-07-02T10:56:32;19.70;70.30
9083;DHT22;4577;48.704;9.000;2023-07-02T10:58:58;19.70;70.30
9083;DHT22;4577;48.704;9.000;2023-07-02T11:01:25;20.00;67.10
9083;DHT22;4577;48.704;9.000;2023-07-02T11:04:01;20.10;67.10
9083;DHT22;4577;48.704;9.000;2023-07-02T11:06:28;20.00;66.10
9083;DHT22;4577;48.704;9.000;2023-07-02T11:08:54;20.00;67.50
9083;DHT22;4577;48.704;9.000;2023-07-02T11:11:21;19.90;68.10
9083;DHT22;4577;48.704;9.000;2023-07-02T11:13:48;19.90;68.10
9083;DHT22;4577;48.704;9.000;2023-07-02T11:16:21;19.90;68.00
9083;DHT22;4577;48.704;9.000;2023-07-02T11:18:50;19.80;68.00
9083;DHT22;4577;48.704;9.000;2023-07-02T11:21:16;19.80;65.80
9083;DHT22;4577;48.704;9.000;2023-07-02T11:23:42;19.90;65.00
9083;DHT22;4577;48.704;9.000;2023-07-02T11:26:08;20.00;64.60
9083;DHT22;4577;48.704;9.000;2023-07-02T11:28:33;20.00;63.50
9083;DHT22;4577;48.704;9.000;2023-07-02T11:31:02;20.10;64.40
9083;DHT22;4577;48.704;9.000;2023-07-02T11:33:39;20.30;64.50
9083;DHT22;4577;48.704;9.000;2023-07-02T11:36:06;20.40;59.40
9083;DHT22;4577;48.704;9.000;2023-07-02T11:38:36;20.40;59.10
9083;DHT22;4577;48.704;9.000;2023-07-02T11:41:05;20.30;59.00
9083;DHT22;4577;48.704;9.000;2023-07-02T11:43:30;20.30;60.60
9083;DHT22;4577;48.704;9.000;2023-07-02T11:45:56;20.50;60.40
9083;DHT22;4577;48.704;9.000;2023-07-02T11:48:22;20.60;60.20
9083;DHT22;4577;48.704;9.000;2023-07-02T11:50:48;20.70;59.00
9083;DHT22;4577;48.704;9.000;2023-07-02T11:53:13;20.70;58.70
9083;DHT22;4577;48.704;9.000;2023-07-02T11:55:39;20.50;59.70
9083;DHT22;4577;48.704;9.000;2023-07-02T11:58:05;20.50;59.60
9083;DHT22;4577;48.704;9.000;2023-07-02T12:00:31;20.50;59.20
9083;DHT22;4577;48.704;9.000;2023-07-02T12:02:56;20.70;58.70
9083;DHT22;4577;48.704;9.000;2023-07-02T12:05:22;20.60;57.00
9083;DHT22;4577;48.704;9.000;2023-07-02T12:07:48;20.80;57.10
9083;DHT22;4577;48.704;9.000;2023-07-02T12:10:13;20.80;55.90
9083;DHT22;4577;48.704;9.000;2023-07-02T12:12:39;21.00;56.80
9083;DHT22;4577;48.704;9.000;2023-07-02T12:15:05;21.00;55.10
9083;DHT22;4577;48.704;9.000;2023-07-02T12:17:31;20.90;54.90
9083;DHT22;4577;48.704;9.000;2023-07-02T12:19:57;20.80;54.70
9083;DHT22;4577;48.704;9.000;2023-07-02T12:22:23;20.80;54.20
9083;DHT22;4577;48.704;9.000;2023-07-02T12:24:49;20.80;53.60
9083;DHT22;4577;48.704;9.000;2023-07-02T12:27:21;21.10;54.20
9083;DHT22;4577;48.704;9.000;2023-07-02T12:29:46;21.00;53.90
9083;DHT22;4577;48.704;9.000;2023-07-02T12:32:14;21.10;54.40
9083;DHT22;4577;48.704;9.000;2023-07-02T12:34:40;21.10;54.00
9083;DHT22;4577;48.704;9.000;2023-07-02T12:37:05;21.30;54.20
9083;DHT22;4577;48.704;9.000;2023-07-02T12:39:31;21.20;53.40
9083;DHT22;4577;48.704;9.000;2023-07-02T12:41:57;21.10;53.00
9083;DHT22;4577;48.704;9.000;2023-07-02T12:44:22;21.30;53.70
9083;DHT22;4577;48.704;9.000;2023-07-02T12:46:49;21.30;53.10
9083;DHT22;4577;48.704;9.000;2023-07-02T12:49:14;21.30;52.50
9083;DHT22;4577;48.704;9.000;2023-07-02T12:51:40;21.80;53.60
9083;DHT22;4577;48.704;9.000;2023-07-02T12:54:06;21.30;52.10
9083;DHT22;4577;48.704;9.000;2023-07-02T12:56:31;21.50;51.80
9083;DHT22;4577;48.704;9.000;2023-07-02T12:58:57;21.80;51.90
9083;DHT22;4577;48.704;9.000;2023-07-02T13:01:23;21.90;51.30
9083;DHT22;4577;48.704;9.000;2023-07-02T13:03:49;21.80;50.90
9083;DHT22;4577;48.704;9.000;2023-07-02T13:06:16;21.80;49.80
9083;DHT22;4577;48.704;9.000;2023-07-02T13:08:41;21.80;48.20
9083;DHT22;4577;48.704;9.000;2023-07-02T13:11:07;21.90;48.30
9083;DHT22;4577;48.704;9.000;2023-07-02T13:13:34;22.00;47.80
9083;DHT22;4577;48.704;9.000;2023-07-02T13:16:02;22.00;48.00
9083;DHT22;4577;48.704;9.000;2023-07-02T13:18:27;21.90;47.20
9083;DHT22;4577;48.704;9.000;2023-07-02T13:20:53;21.90;46.90
9083;DHT22;4577;48.704;9.000;2023-07-02T13:23:19;21.80;46.60
9083;DHT22;4577;48.704;9.000;2023-07-02T13:25:44;22.00;46.80
9083;DHT22;4577;48.704;9.000;2023-07-02T13:28:10;21.90;45.50
9083;DHT22;4577;48.704;9.000;2023-07-02T13:30:36;21.90;46.00
9083;DHT22;4577;48.704;9.000;2023-07-02T13:33:01;21.90;46.00
9083;DHT22;4577;48.704;9.000;2023-07-02T13:35:27;22.20;46.40
9083;DHT22;4577;48.704;9.000;2023-07-02T13:37:53;22.40;46.40
9083;DHT22;4577;48.704;9.000;2023-07-02T13:40:19;22.50;46.40
9083;DHT22;4577;48.704;9.000;2023-07-02T13:42:44;22.50;45.20
9083;DHT22;4577;48.704;9.000;2023-07-02T13:45:10;22.50;45.70
9083;DHT22;4577;48.704;9.000;2023-07-02T13:47:36;22.60;45.90
9083;DHT22;4577;48.704;9.000;2023-07-02T13:50:03;22.80;44.90
9083;DHT22;4577;48.704;9.000;2023-07-02T13:52:29;22.60;42.80
9083;DHT22;4577;48.704;9.000;2023-07-02T13:54:55;22.50;43.10
9083;DHT22;4577;48.704;9.000;2023-07-02T13:57:21;22.60;44.20
9083;DHT22;4577;48.704;9.000;2023-07-02T13:59:47;22.70;44.10
9083;DHT22;4577;48.704;9.000;2023-07-02T14:02:12;22.70;45.00
9083;DHT22;4577;48.704;9.000;2023-07-02T14:04:38;23.00;44.40
9083;DHT22;4577;48.704;9.000;2023-07-02T14:07:04;22.80;44.10
9083;DHT22;4577;48.704;9.000;2023-07-02T14:09:31;22.80;45.10
9083;DHT22;4577;48.704;9.000;2023-07-02T14:11:56;22.80;44.80
9083;DHT22;4577;48.704;9.000;2023-07-02T14:14:22;22.70;45.70
9083;DHT22;4577;48.704;9.000;2023-07-02T14:16:47;22.70;45.10
9083;DHT22;4577;48.704;9.000;2023-07-02T14:19:13;23.00;45.00
9083;DHT22;4577;48.704;9.000;2023-07-02T14:21:40;22.90;45.60
9083;DHT22;4577;48.704;9.000;2023-07-02T14:24:06;23.20;44.90
9083;DHT22;4577;48.704;9.000;2023-07-02T14:26:31;23.20;44.20
9083;DHT22;4577;48.704;9.000;2023-07-02T14:28:57;23.20;44.90
9083;DHT22;4577;48.704;9.000;2023-07-02T14:31:24;23.20;44.90
9083;DHT22;4577;48.704;9.000;2023-07-02T14:33:49;23.00;44.30
9083;DHT22;4577;48.704;9.000;2023-07-02T14:36:16;23.00;45.10
9083;DHT22;4577;48.704;9.000;2023-07-02T14:38:41;22.90;44.70
9083;DHT22;4577;48.704;9.000;2023-07-02T14:41:07;23.10;44.90
9083;DHT22;4577;48.704;9.000;2023-07-02T14:43:33;23.00;43.30
9083;DHT22;4577;48.704;9.000;2023-07-02T14:46:02;22.90;44.10
9083;DHT22;4577;48.704;9.000;2023-07-02T14:48:28;23.00;45.00
9083;DHT22;4577;48.704;9.000;2023-07-02T14:50:56;22.90;44.90
9083;DHT22;4577;48.704;9.000;2023-07-02T14:53:22;23.00;44.10
9083;DHT22;4577;48.704;9.000;2023-07-02T14:55:48;23.10;44.00
9083;DHT22;4577;48.704;9.000;2023-07-02T14:58:16;23.20;44.30
9083;DHT22;4577;48.704;9.000;2023-07-02T15:00:53;23.10;44.20
9083;DHT22;4577;48.704;9.000;2023-07-02T15:03:20;22.80;44.30
9083;DHT22;4577;48.704;9.000;2023-07-02T15:05:47;22.70;44.80
9083;DHT22;4577;48.704;9.000;2023-07-02T15:08:14;23.00;45.20
9083;DHT22;4577;48.704;9.000;2023-07-02T15:10:44;23.40;44.70
9083;DHT22;4577;48.704;9.000;2023-07-02T15:13:10;23.60;44.70
9083;DHT22;4577;48.704;9.000;2023-07-02T15:15:36;23.50;43.20
9083;DHT22;4577;48.704;9.000;2023-07-02T15:18:03;23.50;43.10
9083;DHT22;4577;48.704;9.000;2023-07-02T15:20:29;23.70;43.10
9083;DHT22;4577;48.704;9.000;2023-07-02T15:22:55;23.40;43.00
9083;DHT22;4577;48.704;9.000;2023-07-02T15:25:21;23.30;43.50
9083;DHT22;4577;48.704;9.000;2023-07-02T15:27:47;23.40;43.70
9083;DHT22;4577;48.704;9.000;2023-07-02T15:30:13;23.20;43.90
9083;DHT22;4577;48.704;9.000;2023-07-02T15:32:39;23.10;44.50
9083;DHT22;4577;48.704;9.000;2023-07-02T15:35:05;23.00;44.40
9083;DHT22;4577;48.704;9.000;2023-07-02T15:37:30;22.90;43.80
9083;DHT22;4577;48.704;9.000;2023-07-02T15:39:56;23.20;44.40
9083;DHT22;4577;48.704;9.000;2023-07-02T15:42:22;23.40;44.50
9083;DHT22;4577;48.704;9.000;2023-07-02T15:44:49;23.20;44.70
9083;DHT22;4577;48.704;9.000;2023-07-02T15:47:15;23.30;43.80
9083;DHT22;4577;48.704;9.000;2023-07-02T15:49:41;23.30;43.20
9083;DHT22;4577;48.704;9.000;2023-07-02T15:52:07;23.40;43.40
9083;DHT22;4577;48.704;9.000;2023-07-02T15:54:32;23.50;44.30
9083;DHT22;4577;48.704;9.000;2023-07-02T15:56:58;23.20;44.90
9083;DHT22;4577;48.704;9.000;2023-07-02T15:59:24;23.00;46.00
9083;DHT22;4577;48.704;9.000;2023-07-02T16:01:50;22.80;46.40
9083;DHT22;4577;48.704;9.000;2023-07-02T16:04:16;22.90;46.70
9083;DHT22;4577;48.704;9.000;2023-07-02T16:06:42;22.90;46.90
9083;DHT22;4577;48.704;9.000;2023-07-02T16:09:08;22.90;46.30